Time;durP1;ratioP1;P1;durP2;ratioP2;P2;SDS_P1;SDS_P2;PMS_P1;PMS_P2;Temp;Humidity;BMP_temperature;BMP_pressure;BME280_temperature;BME280_humidity;BME280_pressure;Samples;Min_cycle;Max_cycle;Signal;HPM_P1;HPM_P2
2023/02/18 00:02:14;;;;;;;10.55;7.15;;;;;;;14.26;70.65;98114.63;4938445;28;20268;-75
2023/02/18 00:04:39;;;;;;;11.02;7.53;;;;;;;14.11;71.05;98110.00;4925160;28;20276;-75
2023/02/18 00:07:04;;;;;;;8.68;6.82;;;;;;;14.27;70.47;98111.75;4922613;28;20191;-75
2023/02/18 00:09:30;;;;;;;9.50;7.03;;;;;;;13.97;70.79;98113.00;4925366;28;20268;-75
2023/02/18 00:11:55;;;;;;;8.93;6.97;;;;;;;14.11;70.46;98102.94;4905837;28;20273;-75
2023/02/18 00:14:20;;;;;;;8.35;6.35;;;;;;;14.05;70.45;98101.28;4939882;28;20274;-75
2023/02/18 00:16:46;;;;;;;9.02;6.85;;;;;;;14.00;70.68;98104.66;4924368;28;20227;-75
2023/02/18 00:19:14;;;;;;;9.43;6.50;;;;;;;14.17;70.60;98115.06;4931135;28;20601;-75
2023/02/18 00:21:40;;;;;;;10.02;7.30;;;;;;;14.04;71.28;98108.34;4921922;28;20590;-75
2023/02/18 00:24:07;;;;;;;9.15;7.03;;;;;;;14.27;69.96;98114.38;4924067;28;20266;-75
2023/02/18 00:26:33;;;;;;;11.15;8.13;;;;;;;14.36;70.05;98102.44;4933662;28;20251;-75
2023/02/18 00:28:59;;;;;;;8.80;6.85;;;;;;;14.00;70.76;98102.03;4917080;28;20208;-75
2023/02/18 00:31:27;;;;;;;9.60;7.13;;;;;;;14.02;70.76;98096.56;4920172;28;20033;-75
2023/02/18 00:33:52;;;;;;;8.10;6.50;;;;;;;13.91;71.28;98113.16;4924952;28;20310;-75
2023/02/18 00:36:19;;;;;;;8.23;6.43;;;;;;;13.99;70.63;98105.69;4921585;28;20265;-75
2023/02/18 00:38:46;;;;;;;9.70;6.82;;;;;;;14.21;70.18;98107.53;4941077;28;20540;-75
2023/02/18 00:41:11;;;;;;;11.25;7.35;;;;;;;14.14;70.91;98096.44;4905224;28;20278;-75
2023/02/18 00:43:36;;;;;;;9.13;7.30;;;;;;;14.15;70.91;98095.38;4933352;28;20650;-75
2023/02/18 00:46:02;;;;;;;8.18;6.75;;;;;;;14.22;70.39;98102.03;4915147;28;20217;-75
2023/02/18 00:48:27;;;;;;;8.50;6.70;;;;;;;14.24;70.55;98091.31;4923404;28;20197;-74
2023/02/18 00:50:52;;;;;;;9.02;6.97;;;;;;;14.17;70.35;98075.78;4940924;28;20216;-75
2023/02/18 00:53:18;;;;;;;8.13;6.03;;;;;;;14.20;70.70;98083.13;4922773;28;20602;-75
2023/02/18 00:55:46;;;;;;;8.40;6.75;;;;;;;14.26;71.03;98091.84;4917964;28;20240;-75
2023/02/18 00:58:12;;;;;;;8.55;6.38;;;;;;;14.15;71.10;98093.56;4905869;28;20735;-75
2023/02/18 01:00:37;;;;;;;7.97;5.28;;;;;;;14.17;70.97;98088.88;4919712;28;20276;-75
2023/02/18 01:03:05;;;;;;;8.15;5.95;;;;;;;14.21;70.37;98081.31;4925669;28;20187;-74
2023/02/18 01:05:30;;;;;;;7.03;5.28;;;;;;;14.29;70.90;98075.66;4932758;28;20275;-75
2023/02/18 01:07:56;;;;;;;7.20;5.22;;;;;;;13.92;71.65;98071.03;4907505;28;20161;-75
2023/02/18 01:10:21;;;;;;;8.20;4.97;;;;;;;14.06;71.44;98076.69;4919610;28;20178;-75
2023/02/18 01:12:46;;;;;;;9.43;5.93;;;;;;;14.03;71.43;98079.78;4926888;28;20614;-75
2023/02/18 01:15:14;;;;;;;6.85;5.28;;;;;;;14.10;71.55;98079.63;4923256;28;20102;-75
2023/02/18 01:17:39;;;;;;;7.45;5.28;;;;;;;14.21;70.08;98081.31;4939613;28;20281;-75
2023/02/18 01:20:05;;;;;;;6.95;5.63;;;;;;;14.02;71.36;98089.50;4895665;28;20563;-74
2023/02/18 01:22:31;;;;;;;8.88;6.03;;;;;;;14.02;71.48;98083.47;4917265;28;20273;-75
2023/02/18 01:24:56;;;;;;;7.07;5.55;;;;;;;14.02;70.64;98088.72;4904717;28;20291;-75
2023/02/18 01:27:22;;;;;;;8.75;5.65;;;;;;;14.22;70.92;98091.56;4920707;28;20362;-75
2023/02/18 01:29:47;;;;;;;7.90;5.68;;;;;;;14.20;70.49;98093.59;4939462;28;20204;-75
2023/02/18 01:32:12;;;;;;;7.18;5.90;;;;;;;14.27;70.29;98088.19;4906960;28;20267;-75
2023/02/18 01:34:38;;;;;;;7.97;5.75;;;;;;;13.98;71.61;98085.78;4924742;28;20271;-75
2023/02/18 01:37:03;;;;;;;8.32;6.32;;;;;;;14.00;71.11;98083.72;4922034;28;20224;-75
2023/02/18 01:39:28;;;;;;;9.05;7.07;;;;;;;14.15;71.07;98077.06;4919344;28;20258;-74
2023/02/18 01:41:54;;;;;;;9.18;6.13;;;;;;;14.05;70.76;98081.16;4933413;28;20647;-75
2023/02/18 01:44:22;;;;;;;9.45;6.30;;;;;;;14.21;71.06;98076.09;4898366;28;20231;-75
2023/02/18 01:46:48;;;;;;;7.75;5.82;;;;;;;14.04;71.15;98066.47;4902494;28;20236;-75
2023/02/18 01:49:30;;;;;;;7.45;5.85;;;;;;;14.40;70.06;98079.94;4927354;28;20286;-75
2023/02/18 01:51:59;;;;;;;8.18;5.85;;;;;;;14.29;70.62;98080.91;4934308;28;20213;-75
2023/02/18 01:54:28;;;;;;;7.53;5.68;;;;;;;14.28;70.25;98081.13;4920234;28;20719;-75
2023/02/18 01:57:00;;;;;;;6.78;5.05;;;;;;;14.37;69.70;98077.81;4921447;28;20357;-75
2023/02/18 01:59:36;;;;;;;6.47;4.88;;;;;;;14.41;69.63;98071.06;4916546;28;20327;-75
2023/02/18 02:02:02;;;;;;;6.53;5.05;;;;;;;14.07;71.14;98075.69;4911752;28;20299;-75
2023/02/18 02:04:28;;;;;;;5.88;4.60;;;;;;;14.01;70.55;98072.19;4916546;28;20200;-75
2023/02/18 02:06:53;;;;;;;8.27;5.82;;;;;;;14.03;71.18;98072.75;4895653;28;20282;-75
2023/02/18 02:09:20;;;;;;;8.13;5.47;;;;;;;14.10;71.22;98077.00;4919157;28;20281;-75
2023/02/18 02:12:04;;;;;;;7.68;5.80;;;;;;;14.34;70.71;98082.75;4919198;28;20174;-74
2023/02/18 02:14:48;;;;;;;8.68;5.45;;;;;;;14.17;70.54;98069.75;4913826;28;20631;-75
2023/02/18 02:17:32;;;;;;;7.72;5.50;;;;;;;14.27;70.18;98061.22;4922910;28;20578;-75
2023/02/18 02:20:11;;;;;;;9.00;5.88;;;;;;;14.42;70.28;98066.59;4920961;28;20204;-75
2023/02/18 02:23:07;;;;;;;7.88;5.53;;;;;;;14.36;70.26;98050.06;4918123;28;20400;-74
2023/02/18 02:26:17;;;;;;;8.85;6.00;;;;;;;14.33;70.06;98052.38;4922221;28;20286;-74
2023/02/18 02:28:51;;;;;;;9.75;6.40;;;;;;;14.01;70.90;98051.25;4910572;28;20642;-75
2023/02/18 02:31:45;;;;;;;9.52;7.00;;;;;;;14.02;70.99;98041.56;4921618;28;20548;-75
2023/02/18 02:34:20;;;;;;;9.15;6.60;;;;;;;14.01;70.70;98030.28;4906764;28;20293;-74
2023/02/18 02:36:54;;;;;;;9.75;6.90;;;;;;;14.00;70.37;98023.50;4923541;28;20595;-77
2023/02/18 02:39:28;;;;;;;10.27;7.17;;;;;;;13.94;70.42;98024.44;4944672;28;20251;-75
2023/02/18 02:42:03;;;;;;;8.80;6.93;;;;;;;14.07;70.59;98025.09;4924083;28;20562;-75
2023/02/18 02:44:45;;;;;;;10.57;7.40;;;;;;;13.39;72.34;98009.66;4940214;28;20170;-74
2023/02/18 02:47:19;;;;;;;10.73;7.60;;;;;;;13.78;71.65;98020.09;4924789;28;20273;-75
2023/02/18 02:49:57;;;;;;;11.13;8.32;;;;;;;13.84;70.70;98011.25;4917625;28;20283;-75
2023/02/18 02:52:28;;;;;;;10.55;7.32;;;;;;;13.70;71.10;98025.75;4937804;28;20224;-75
2023/02/18 02:54:53;;;;;;;9.65;7.38;;;;;;;12.99;72.40;98013.25;4921455;28;20313;-75
2023/02/18 02:57:18;;;;;;;10.30;7.70;;;;;;;13.63;71.46;98023.31;4933782;28;20327;-75
2023/02/18 02:59:51;;;;;;;9.65;7.13;;;;;;;13.87;70.78;98018.63;4917972;28;20708;-75
2023/02/18 03:02:38;;;;;;;11.30;7.13;;;;;;;13.98;69.80;98024.75;4939341;28;20170;-75
2023/02/18 03:05:21;;;;;;;10.68;7.28;;;;;;;14.00;70.07;98027.91;4924449;28;20208;-75
2023/02/18 03:07:51;;;;;;;11.45;7.63;;;;;;;13.88;70.38;98014.16;4937702;28;20322;-74
2023/02/18 03:10:23;;;;;;;9.23;6.85;;;;;;;14.03;70.04;98007.28;4937495;28;20801;-75
2023/02/18 03:13:02;;;;;;;11.00;7.50;;;;;;;14.03;69.43;98002.06;4938921;28;20200;-75
2023/02/18 03:15:31;;;;;;;10.90;8.05;;;;;;;13.89;69.98;97994.81;4922656;28;20177;-75
2023/02/18 03:18:04;;;;;;;10.35;7.22;;;;;;;13.98;70.22;98001.19;4924301;28;20592;-75
2023/02/18 03:20:39;;;;;;;10.90;7.75;;;;;;;14.13;68.92;97980.41;4925465;28;20186;-75
2023/02/18 03:23:10;;;;;;;10.98;7.88;;;;;;;13.76;69.43;97986.31;4927438;28;20703;-75
2023/02/18 03:25:36;;;;;;;9.32;6.97;;;;;;;13.96;68.78;97984.94;4941736;28;20742;-75
2023/02/18 03:28:08;;;;;;;11.27;7.03;;;;;;;14.11;69.25;97984.31;4934405;28;20214;-75
2023/02/18 03:30:39;;;;;;;9.27;7.10;;;;;;;13.96;69.41;97984.94;4918104;28;20749;-75
2023/02/18 03:33:07;;;;;;;10.85;7.80;;;;;;;13.90;68.98;97988.53;4925822;28;20228;-75
2023/02/18 03:35:34;;;;;;;9.15;6.78;;;;;;;13.78;69.37;97993.91;4925779;28;20173;-75
2023/02/18 03:38:14;;;;;;;9.70;8.07;;;;;;;13.98;69.55;97994.16;4906589;28;20280;-74
2023/02/18 03:40:40;;;;;;;9.40;7.38;;;;;;;13.99;68.34;97993.09;4913528;28;20196;-75
2023/02/18 03:43:05;;;;;;;10.18;7.18;;;;;;;14.04;67.75;97987.91;4923436;28;20377;-75
2023/02/18 03:45:30;;;;;;;11.30;7.53;;;;;;;13.94;67.87;97992.25;4941650;28;20276;-75
2023/02/18 03:47:56;;;;;;;8.27;6.63;;;;;;;13.78;69.73;97999.94;4924032;28;20286;-74
2023/02/18 03:50:21;;;;;;;9.65;7.93;;;;;;;13.90;69.04;97994.56;4927656;28;20293;-75
2023/02/18 03:52:47;;;;;;;9.80;6.80;;;;;;;14.05;68.54;97991.31;4907478;28;20276;-75
2023/02/18 03:55:12;;;;;;;10.10;7.32;;;;;;;14.03;68.70;97986.34;4924315;28;20208;-75
2023/02/18 03:57:37;;;;;;;11.63;7.95;;;;;;;13.73;68.23;97986.00;4923857;28;20650;-75
2023/02/18 04:00:05;;;;;;;10.00;7.32;;;;;;;13.68;68.82;97995.38;4925835;28;20279;-75
2023/02/18 04:02:31;;;;;;;11.05;7.53;;;;;;;13.96;68.08;97993.56;4924132;28;20450;-75
2023/02/18 04:04:56;;;;;;;11.25;7.78;;;;;;;13.91;68.81;97982.28;4920386;28;20165;-75
2023/02/18 04:07:21;;;;;;;11.35;8.00;;;;;;;13.98;68.60;97973.19;4909386;28;20208;-74
2023/02/18 04:09:47;;;;;;;9.45;7.05;;;;;;;13.92;68.55;97968.94;4940865;28;20265;-75
2023/02/18 04:12:12;;;;;;;9.32;7.05;;;;;;;13.95;68.01;97965.84;4928303;28;20256;-75
2023/02/18 04:14:37;;;;;;;10.43;7.65;;;;;;;13.90;67.87;97978.88;4924827;28;20302;-74
2023/02/18 04:17:03;;;;;;;10.18;7.43;;;;;;;13.87;68.14;97974.13;4906930;28;20710;-75
2023/02/18 04:19:28;;;;;;;11.13;7.25;;;;;;;13.87;68.03;97971.50;4924918;28;20225;-75
2023/02/18 04:21:54;;;;;;;9.43;6.95;;;;;;;13.89;67.87;97979.09;4920513;28;20212;-75
2023/02/18 04:24:19;;;;;;;9.68;7.63;;;;;;;13.81;67.59;97970.66;4926442;28;20251;-75
2023/02/18 04:26:44;;;;;;;9.75;6.78;;;;;;;13.82;67.39;97972.22;4909579;28;20224;-75
2023/02/18 04:29:09;;;;;;;8.57;6.28;;;;;;;13.86;67.10;97967.28;4925787;28;20188;-75
2023/02/18 04:31:35;;;;;;;9.88;7.22;;;;;;;13.87;67.51;97961.03;4922131;28;20207;-75
2023/02/18 04:34:00;;;;;;;8.50;6.57;;;;;;;13.77;67.98;97972.16;4929204;28;20170;-75
2023/02/18 04:36:26;;;;;;;9.43;6.72;;;;;;;13.76;67.22;97970.59;4906683;28;20240;-75
2023/02/18 04:38:51;;;;;;;7.70;6.45;;;;;;;13.56;67.96;97976.38;4923277;28;20243;-75
2023/02/18 04:41:17;;;;;;;7.60;5.82;;;;;;;13.67;66.96;97970.25;4923536;28;20256;-75
2023/02/18 04:43:42;;;;;;;7.75;5.65;;;;;;;13.42;66.54;97957.66;4931640;28;20383;-75
2023/02/18 04:46:08;;;;;;;7.30;5.95;;;;;;;13.52;66.82;97959.59;4909539;28;20296;-74
2023/02/18 04:48:33;;;;;;;8.93;5.95;;;;;;;13.66;66.32;97960.81;4920567;28;20415;-75
2023/02/18 04:50:59;;;;;;;9.73;6.40;;;;;;;13.68;66.28;97963.97;4921745;28;20228;-75
2023/02/18 04:53:25;;;;;;;7.55;5.57;;;;;;;13.77;66.84;97963.53;4909441;28;20231;-75
2023/02/18 04:55:51;;;;;;;9.30;6.10;;;;;;;13.53;67.46;97952.53;4910428;28;20181;-75
2023/02/18 04:58:17;;;;;;;9.07;6.05;;;;;;;13.56;66.42;97950.22;4920263;28;20200;-75
2023/02/18 05:00:43;;;;;;;6.93;5.60;;;;;;;13.51;66.32;97942.31;4903340;28;20243;-75
2023/02/18 05:03:08;;;;;;;10.00;6.07;;;;;;;13.72;66.28;97951.19;4921528;28;20361;-75
2023/02/18 05:05:34;;;;;;;9.23;6.38;;;;;;;13.77;67.06;97955.69;4924812;28;20684;-75
2023/02/18 05:08:00;;;;;;;8.88;6.28;;;;;;;13.64;66.60;97941.94;4922677;28;20251;-75
2023/02/18 05:10:25;;;;;;;9.27;6.07;;;;;;;13.62;65.92;97945.81;4891463;28;20145;-75
2023/02/18 05:12:51;;;;;;;9.80;6.72;;;;;;;13.71;66.68;97947.00;4927186;28;20578;-75
2023/02/18 05:15:16;;;;;;;9.45;6.15;;;;;;;13.57;66.49;97946.59;4920744;28;20354;-75
2023/02/18 05:17:41;;;;;;;9.40;6.47;;;;;;;13.67;66.90;97945.88;4925159;28;20170;-75
2023/02/18 05:20:07;;;;;;;9.63;6.97;;;;;;;13.75;66.80;97948.06;4924808;28;20461;-75
2023/02/18 05:22:33;;;;;;;9.70;6.68;;;;;;;13.70;66.95;97962.94;4939793;28;20170;-75
2023/02/18 05:24:58;;;;;;;8.93;6.32;;;;;;;13.72;66.19;97958.25;4923512;28;20315;-75
2023/02/18 05:27:23;;;;;;;8.57;6.53;;;;;;;13.55;66.72;97947.84;4922521;28;20162;-75
2023/02/18 05:29:49;;;;;;;8.18;6.30;;;;;;;13.53;66.87;97942.84;4908483;28;20208;-75
2023/02/18 05:32:14;;;;;;;9.57;6.82;;;;;;;13.43;67.56;97934.88;4921519;28;20173;-75
2023/02/18 05:34:40;;;;;;;10.05;6.53;;;;;;;13.53;67.24;97935.00;4925534;28;20165;-75
2023/02/18 05:37:05;;;;;;;8.70;6.90;;;;;;;13.42;66.66;97922.88;4906497;28;20215;-75
2023/02/18 05:39:30;;;;;;;11.18;7.05;;;;;;;13.47;67.78;97936.00;4920414;28;20593;-75
2023/02/18 05:41:56;;;;;;;9.73;6.93;;;;;;;13.53;67.61;97932.38;4922330;28;20454;-75
2023/02/18 05:44:30;;;;;;;11.13;7.63;;;;;;;13.60;67.35;97933.00;4923927;28;20242;-75
2023/02/18 05:46:57;;;;;;;10.50;7.22;;;;;;;13.67;67.52;97940.66;4940938;28;20500;-75
2023/02/18 05:49:24;;;;;;;10.18;7.28;;;;;;;13.39;67.64;97939.03;4923237;28;20638;-75
2023/02/18 05:51:49;;;;;;;11.77;7.80;;;;;;;13.64;67.02;97934.09;4924090;28;20212;-75
2023/02/18 05:54:14;;;;;;;10.90;8.30;;;;;;;13.52;68.22;97932.63;4922821;28;20579;-75
2023/02/18 05:56:40;;;;;;;13.13;8.43;;;;;;;13.67;67.18;97933.63;4921483;28;20374;-75
2023/02/18 05:59:05;;;;;;;10.63;8.23;;;;;;;13.74;67.44;97943.09;4907238;28;20336;-75
2023/02/18 06:01:30;;;;;;;14.05;9.20;;;;;;;13.63;67.49;97940.34;4939585;28;20519;-75
2023/02/18 06:03:56;;;;;;;11.77;8.20;;;;;;;13.72;67.88;97950.41;4920579;28;20232;-75
2023/02/18 06:06:21;;;;;;;14.25;9.82;;;;;;;13.45;67.72;97938.03;4920096;28;20459;-75
2023/02/18 06:08:47;;;;;;;12.95;9.77;;;;;;;13.30;68.92;97942.03;4901857;28;20336;-75
2023/02/18 06:11:12;;;;;;;13.55;9.73;;;;;;;13.60;67.84;97948.69;4923454;28;20439;-75
2023/02/18 06:13:37;;;;;;;16.00;10.98;;;;;;;13.56;68.76;97925.91;4941502;28;20130;-75
2023/02/18 06:16:03;;;;;;;14.50;9.65;;;;;;;13.78;68.34;97929.28;4921573;28;20169;-75
2023/02/18 06:18:28;;;;;;;15.38;10.68;;;;;;;13.80;68.25;97934.25;4907942;28;20290;-75
2023/02/18 06:20:54;;;;;;;14.98;10.82;;;;;;;13.74;68.57;97937.84;4922728;28;20201;-74
2023/02/18 06:23:19;;;;;;;14.93;10.48;;;;;;;13.69;68.17;97933.34;4921659;28;20645;-75
2023/02/18 06:25:47;;;;;;;14.80;10.52;;;;;;;13.89;68.20;97924.91;4911836;28;20515;-75
2023/02/18 06:28:13;;;;;;;15.10;10.88;;;;;;;13.65;69.06;97922.56;4923688;28;20379;-74
2023/02/18 06:30:38;;;;;;;15.82;11.48;;;;;;;13.79;68.32;97917.75;4905866;28;20252;-75
2023/02/18 06:33:03;;;;;;;14.88;10.35;;;;;;;13.71;67.88;97914.78;4920012;28;20288;-75
2023/02/18 06:35:29;;;;;;;17.20;10.88;;;;;;;13.64;69.14;97915.78;4906018;28;20235;-75
2023/02/18 06:38:00;;;;;;;16.20;10.90;;;;;;;13.71;69.07;97907.75;4907444;28;20394;-75
2023/02/18 06:40:25;;;;;;;14.57;10.57;;;;;;;13.71;68.25;97906.94;4901826;28;20208;-75
2023/02/18 06:42:51;;;;;;;17.13;10.40;;;;;;;13.77;68.51;97895.50;4887051;28;20259;-75
2023/02/18 06:45:16;;;;;;;15.60;10.40;;;;;;;13.66;67.89;97892.75;4906696;28;20208;-75
2023/02/18 06:47:41;;;;;;;18.13;11.20;;;;;;;13.80;67.73;97898.41;4890781;28;20324;-75
2023/02/18 06:50:07;;;;;;;16.85;10.65;;;;;;;13.84;67.16;97889.00;4923048;28;20236;-75
2023/02/18 06:52:33;;;;;;;14.77;10.57;;;;;;;13.80;67.99;97887.94;4906599;28;20275;-75
2023/02/18 06:54:59;;;;;;;15.32;10.15;;;;;;;13.36;69.50;97887.19;4922655;28;20166;-75
2023/02/18 06:57:24;;;;;;;15.98;11.02;;;;;;;13.62;68.66;97890.88;4904062;28;20212;-75
2023/02/18 06:59:50;;;;;;;17.27;11.05;;;;;;;13.65;68.69;97885.94;4907638;28;20255;-75
2023/02/18 07:02:15;;;;;;;15.80;10.52;;;;;;;13.68;68.20;97876.81;4923330;28;20204;-75
2023/02/18 07:04:41;;;;;;;14.75;10.27;;;;;;;13.77;67.86;97877.16;4920892;28;20452;-75
2023/02/18 07:07:06;;;;;;;15.32;11.10;;;;;;;13.51;67.93;97879.53;4902287;28;20308;-75
2023/02/18 07:09:31;;;;;;;15.50;10.57;;;;;;;13.54;68.55;97879.03;4915672;28;20228;-75
2023/02/18 07:11:57;;;;;;;13.98;10.05;;;;;;;13.70;67.43;97874.75;4905196;28;20217;-75
2023/02/18 07:14:23;;;;;;;14.40;9.98;;;;;;;13.24;69.15;97874.22;4932889;28;20316;-75
2023/02/18 07:16:49;;;;;;;13.70;10.27;;;;;;;13.81;67.97;97883.47;4885994;28;20208;-75
2023/02/18 07:19:15;;;;;;;14.13;10.18;;;;;;;13.90;67.58;97873.34;4920037;28;21008;-75
2023/02/18 07:21:41;;;;;;;15.45;10.48;;;;;;;13.77;67.32;97866.69;4886401;28;20199;-76
2023/02/18 07:24:06;;;;;;;14.25;10.00;;;;;;;13.68;67.72;97882.84;4904651;28;20197;-75
2023/02/18 07:26:32;;;;;;;14.20;9.63;;;;;;;14.01;67.24;97864.56;4903623;28;20205;-75
2023/02/18 07:28:57;;;;;;;14.27;10.15;;;;;;;14.04;65.86;97858.81;4928054;28;20675;-75
2023/02/18 07:31:22;;;;;;;13.27;9.60;;;;;;;13.84;66.57;97862.81;4921094;28;20280;-76
2023/02/18 07:33:48;;;;;;;15.15;9.13;;;;;;;14.10;66.22;97860.44;4912877;28;20220;-75
2023/02/18 07:36:13;;;;;;;14.38;9.45;;;;;;;14.07;66.38;97862.75;4919797;28;20212;-76
2023/02/18 07:38:38;;;;;;;13.48;9.45;;;;;;;14.03;66.63;97860.66;4921712;28;20193;-75
2023/02/18 07:41:04;;;;;;;14.30;9.32;;;;;;;14.01;66.56;97867.16;4920663;28;20216;-75
2023/02/18 07:43:29;;;;;;;14.35;9.55;;;;;;;14.09;66.51;97860.69;4920739;28;20265;-75
2023/02/18 07:45:55;;;;;;;12.65;9.32;;;;;;;14.09;66.44;97858.88;4906364;28;20185;-75
2023/02/18 07:48:20;;;;;;;13.90;9.55;;;;;;;14.00;66.11;97868.19;4921971;28;20361;-75
2023/02/18 07:50:46;;;;;;;16.08;10.55;;;;;;;13.90;67.15;97873.34;4917144;28;20254;-75
2023/02/18 07:53:13;;;;;;;14.68;10.27;;;;;;;13.81;66.66;97867.78;4910057;28;20181;-75
2023/02/18 07:55:50;;;;;;;12.98;9.02;;;;;;;14.09;66.33;97871.19;4909742;28;20149;-75
2023/02/18 07:58:42;;;;;;;13.95;9.48;;;;;;;14.33;65.71;97864.53;4917133;28;20148;-75
2023/02/18 08:01:09;;;;;;;14.52;10.15;;;;;;;14.34;65.92;97868.75;4894406;28;20242;-76
2023/02/18 08:03:35;;;;;;;14.15;9.35;;;;;;;14.26;65.59;97868.41;4893505;28;20759;-75
2023/02/18 08:06:02;;;;;;;14.20;9.98;;;;;;;14.19;65.87;97879.13;4924481;28;20268;-75
2023/02/18 08:08:29;;;;;;;12.07;9.82;;;;;;;14.17;66.03;97878.56;4941531;28;20260;-75
2023/02/18 08:10:57;;;;;;;14.10;8.88;;;;;;;14.00;65.83;97881.28;4926175;28;20190;-75
2023/02/18 08:13:22;;;;;;;13.75;9.75;;;;;;;14.02;65.72;97869.53;4924264;28;20162;-74
2023/02/18 08:15:47;;;;;;;12.52;8.43;;;;;;;13.90;65.76;97863.69;4936858;28;20185;-75
2023/02/18 08:18:19;;;;;;;13.32;9.23;;;;;;;14.00;65.27;97857.72;4930212;28;20708;-75
2023/02/18 08:20:46;;;;;;;11.48;8.73;;;;;;;13.86;65.58;97859.97;4925837;28;20190;-74
2023/02/18 08:23:12;;;;;;;13.80;9.32;;;;;;;13.81;65.65;97855.50;4906768;28;20249;-75
2023/02/18 08:25:37;;;;;;;14.88;9.95;;;;;;;13.73;65.69;97855.94;4922598;28;20231;-75
2023/02/18 08:28:03;;;;;;;12.45;9.07;;;;;;;13.84;65.31;97847.13;4924383;28;20294;-75
2023/02/18 08:30:28;;;;;;;12.02;8.70;;;;;;;13.67;65.53;97852.50;4910365;28;20433;-75
2023/02/18 08:32:53;;;;;;;14.30;9.43;;;;;;;13.37;66.38;97846.94;4904958;28;20745;-75
2023/02/18 08:35:19;;;;;;;12.05;8.75;;;;;;;13.63;65.88;97856.63;4908221;28;20208;-75
2023/02/18 08:37:44;;;;;;;12.98;9.68;;;;;;;13.65;65.46;97849.31;4924133;28;20212;-75
2023/02/18 08:40:11;;;;;;;13.05;9.32;;;;;;;13.53;65.56;97866.97;4925862;28;20271;-74
2023/02/18 08:42:36;;;;;;;14.23;9.07;;;;;;;13.57;65.59;97860.25;4922672;28;20328;-75
2023/02/18 08:45:02;;;;;;;12.57;8.82;;;;;;;13.64;65.49;97862.63;4892733;28;20369;-75
2023/02/18 08:47:28;;;;;;;15.25;9.70;;;;;;;13.61;65.96;97853.47;4925228;28;20204;-75
2023/02/18 08:49:53;;;;;;;13.40;9.45;;;;;;;13.63;66.20;97859.22;4921812;28;20197;-75
2023/02/18 08:52:19;;;;;;;12.98;8.48;;;;;;;13.75;65.30;97835.53;4907137;28;20188;-75
2023/02/18 08:54:44;;;;;;;13.65;9.63;;;;;;;13.92;64.89;97848.50;4908299;28;20174;-76
2023/02/18 08:57:10;;;;;;;13.52;9.75;;;;;;;13.99;64.46;97854.31;4904832;28;20184;-74
2023/02/18 08:59:35;;;;;;;13.63;9.52;;;;;;;13.68;65.21;97843.59;4915201;28;20216;-75
2023/02/18 09:02:00;;;;;;;12.23;8.70;;;;;;;13.85;64.88;97845.31;4916845;28;20290;-75
2023/02/18 09:04:26;;;;;;;13.25;9.48;;;;;;;13.56;65.64;97844.78;4919995;28;20623;-75
2023/02/18 09:06:51;;;;;;;13.20;9.40;;;;;;;13.84;64.63;97843.72;4905284;28;20132;-75
2023/02/18 09:09:17;;;;;;;14.23;8.73;;;;;;;13.85;64.95;97850.56;4933518;28;20285;-75
2023/02/18 09:11:43;;;;;;;11.93;9.02;;;;;;;13.84;64.61;97854.19;4907694;28;20630;-75
2023/02/18 09:14:08;;;;;;;13.48;9.88;;;;;;;14.13;63.88;97846.84;4908032;28;20188;-75
2023/02/18 09:16:33;;;;;;;12.60;8.95;;;;;;;14.16;63.62;97848.19;4906153;28;20219;-74
2023/02/18 09:18:59;;;;;;;12.40;8.98;;;;;;;14.03;64.04;97844.94;4902542;28;20369;-75
2023/02/18 09:21:25;;;;;;;13.45;9.02;;;;;;;14.18;63.66;97851.34;4909210;28;20498;-75
2023/02/18 09:23:50;;;;;;;14.38;9.38;;;;;;;14.19;63.99;97858.94;4917672;28;20248;-75
2023/02/18 09:26:20;;;;;;;12.77;9.27;;;;;;;14.30;63.52;97862.41;4925039;28;20284;-75
2023/02/18 09:28:45;;;;;;;13.52;9.23;;;;;;;14.11;63.55;97869.09;4925027;28;20195;-75
2023/02/18 09:31:14;;;;;;;12.40;8.57;;;;;;;14.23;63.46;97875.72;4884774;28;20334;-75
2023/02/18 09:33:43;;;;;;;12.32;9.25;;;;;;;14.31;62.41;97884.97;4921126;28;20280;-74
2023/02/18 09:36:09;;;;;;;12.50;8.88;;;;;;;14.04;63.56;97888.41;4920358;28;20655;-75
2023/02/18 09:38:34;;;;;;;11.70;8.48;;;;;;;14.27;63.20;97883.88;4923737;28;20297;-75
2023/02/18 09:41:02;;;;;;;12.27;8.68;;;;;;;14.10;63.80;97877.97;4914468;28;20291;-74
2023/02/18 09:43:44;;;;;;;12.02;8.48;;;;;;;14.12;63.89;97883.75;4932146;28;20245;-75
2023/02/18 09:46:19;;;;;;;12.32;8.43;;;;;;;14.32;63.14;97875.28;4905550;28;20587;-75
2023/02/18 09:48:46;;;;;;;11.93;8.38;;;;;;;14.04;63.94;97870.06;4920426;28;20204;-75
2023/02/18 09:51:14;;;;;;;11.57;8.50;;;;;;;14.02;64.01;97882.63;4935680;28;20651;-75
2023/02/18 09:53:41;;;;;;;12.93;9.40;;;;;;;14.01;64.05;97886.28;4907565;28;20387;-75
2023/02/18 09:56:12;;;;;;;12.25;8.75;;;;;;;14.07;63.32;97868.00;4919731;28;20673;-75
2023/02/18 09:58:38;;;;;;;11.35;8.40;;;;;;;14.03;63.43;97878.19;4909654;28;20263;-75
2023/02/18 10:01:06;;;;;;;13.05;8.77;;;;;;;14.42;62.72;97881.34;4904320;28;20205;-76
2023/02/18 10:03:31;;;;;;;11.07;8.43;;;;;;;14.25;62.35;97865.00;4906095;28;20208;-75
2023/02/18 10:06:02;;;;;;;12.88;9.43;;;;;;;14.38;62.39;97871.66;4929720;28;20705;-75
2023/02/18 10:08:30;;;;;;;12.05;9.25;;;;;;;13.85;63.04;97880.13;4923853;28;20370;-75
2023/02/18 10:10:55;;;;;;;11.57;8.80;;;;;;;14.07;62.75;97881.91;4921467;28;20324;-74
2023/02/18 10:13:23;;;;;;;13.05;9.18;;;;;;;13.97;63.17;97892.28;4904087;28;20307;-75
2023/02/18 10:15:49;;;;;;;13.45;8.80;;;;;;;14.04;62.45;97870.06;4902041;28;20360;-75
2023/02/18 10:18:25;;;;;;;10.68;8.15;;;;;;;13.93;62.69;97881.50;4886859;28;20203;-75
2023/02/18 10:20:52;;;;;;;11.18;8.43;;;;;;;14.05;62.57;97884.75;4920392;28;20192;-75
2023/02/18 10:23:19;;;;;;;11.82;8.80;;;;;;;14.03;62.55;97872.94;4913044;28;20193;-75
2023/02/18 10:25:45;;;;;;;10.65;8.38;;;;;;;13.82;62.29;97875.38;4923421;28;20188;-75
2023/02/18 10:28:11;;;;;;;10.32;7.93;;;;;;;13.78;61.86;97890.00;4930886;28;20719;-75
2023/02/18 10:30:40;;;;;;;9.43;7.57;;;;;;;14.00;61.63;97892.56;4907422;28;20339;-76
2023/02/18 10:33:32;;;;;;;11.10;7.75;;;;;;;14.17;61.29;97894.25;4904755;28;20608;-74
2023/02/18 10:36:31;;;;;;;10.45;8.10;;;;;;;14.18;61.83;97877.53;4923716;28;20706;-75
2023/02/18 10:39:19;;;;;;;10.68;7.32;;;;;;;14.27;60.77;97911.91;4888020;28;20198;-74
2023/02/18 10:42:22;;;;;;;10.30;7.15;;;;;;;14.17;60.82;97915.22;4929006;28;20162;-75
2023/02/18 10:45:01;;;;;;;10.02;8.15;;;;;;;14.24;60.70;97918.44;4941095;28;20233;-75
2023/02/18 10:48:03;;;;;;;8.57;6.40;;;;;;;13.84;61.63;97909.16;4912867;28;20197;-75
2023/02/18 10:50:40;;;;;;;10.15;7.15;;;;;;;13.90;60.78;97900.34;4886080;28;20217;-75
2023/02/18 10:53:38;;;;;;;8.48;5.95;;;;;;;13.71;60.30;97912.16;4906180;28;20603;-74
2023/02/18 10:56:05;;;;;;;8.18;6.20;;;;;;;13.81;60.01;97920.13;4927072;28;20312;-75
2023/02/18 10:58:33;;;;;;;7.75;5.82;;;;;;;14.16;59.27;97916.28;4917403;28;20171;-75
2023/02/18 11:01:03;;;;;;;7.50;6.05;;;;;;;14.23;58.55;97909.78;4923147;28;20299;-75
2023/02/18 11:03:50;;;;;;;8.60;6.10;;;;;;;14.24;58.66;97921.84;4923286;28;20173;-75
2023/02/18 11:06:20;;;;;;;9.48;5.43;;;;;;;14.22;58.48;97933.59;4939018;28;20148;-75
2023/02/18 11:08:46;;;;;;;8.23;5.28;;;;;;;14.24;58.18;97918.44;4922905;28;20351;-75
2023/02/18 11:11:20;;;;;;;7.07;5.53;;;;;;;14.00;58.46;97908.28;4921858;28;20588;-74
2023/02/18 11:13:51;;;;;;;8.30;5.80;;;;;;;14.15;57.55;97917.28;4923978;28;20196;-75
2023/02/18 11:16:23;;;;;;;6.88;5.28;;;;;;;14.26;58.01;97907.69;4882902;28;20284;-75
2023/02/18 11:18:49;;;;;;;6.50;4.82;;;;;;;14.00;57.07;97915.31;4890391;28;20257;-75
2023/02/18 11:21:28;;;;;;;5.88;4.60;;;;;;;13.98;57.31;97912.97;4906467;28;20288;-75
2023/02/18 11:23:54;;;;;;;6.30;4.50;;;;;;;13.84;57.90;97919.63;4923847;28;20279;-74
2023/02/18 11:26:31;;;;;;;8.45;5.18;;;;;;;14.37;57.15;97918.00;4936163;28;20380;-76
2023/02/18 11:29:00;;;;;;;6.38;5.07;;;;;;;13.75;57.12;97915.88;4899650;28;20113;-74
2023/02/18 11:31:35;;;;;;;6.25;4.78;;;;;;;13.98;57.84;97905.13;4924607;28;20189;-74
2023/02/18 11:34:03;;;;;;;6.60;4.53;;;;;;;14.08;57.34;97914.88;4922935;28;20231;-75